RYR23AL EDLV-LEGE
Flight info
| Callsign | RYR23AL |
|---|---|
| Flight time | N/A |
| Altitude | 24000 |
| Route | VEBAK2R VEBAK Z283 MODRU Z717 MAS/N0451F360 UM617 CIV/N0453F370 N872 MEDIL DCT KOVIN DCT DUCRA UM728 RESMI UN857 DISAK DCT DIRMO DCT VALKU DCT ATSUP DCT MINSO DCT DEGOL DCT PPG A27 KANIG |
| Aircraft | B738/M-SDE2E3FGHIRWXY/LB1 |
Departure
| Time | N/A |
|---|---|
| Airport | Weeze (Niederrhein) Airport (EDLV) |
Arrival
| Time | 2026-05-04 18:27 |
|---|---|
| Airport | Girona-Costa Brava Airport (LEGE) |
| Time | Latitude | Longitude | Altitude | Speed | Heading |
|---|---|---|---|---|---|
| 2026-05-04 17:49 | 44.97093 | 2.93225 | 36948 ft | 404 kts | 185° |
| 2026-05-04 17:49 | 44.94277 | 2.93151 | 36940 ft | 404 kts | 185° |
| 2026-05-04 17:50 | 44.88661 | 2.93002 | 36961 ft | 404 kts | 185° |
| 2026-05-04 17:50 | 44.83079 | 2.92831 | 36952 ft | 403 kts | 186° |
| 2026-05-04 17:51 | 44.77485 | 2.92433 | 36959 ft | 402 kts | 187° |
| 2026-05-04 17:51 | 44.71900 | 2.91983 | 36954 ft | 402 kts | 187° |
| 2026-05-04 17:52 | 44.66321 | 2.91553 | 36956 ft | 402 kts | 187° |
| 2026-05-04 17:52 | 44.60734 | 2.91139 | 36952 ft | 402 kts | 186° |
| 2026-05-04 17:53 | 44.55149 | 2.90733 | 36956 ft | 402 kts | 187° |
| 2026-05-04 17:53 | 44.49554 | 2.90326 | 36959 ft | 402 kts | 187° |
| 2026-05-04 17:54 | 44.43967 | 2.89921 | 36948 ft | 402 kts | 187° |
| 2026-05-04 17:54 | 44.38422 | 2.89519 | 36944 ft | 401 kts | 187° |
| 2026-05-04 17:55 | 44.32843 | 2.89116 | 36950 ft | 400 kts | 187° |
| 2026-05-04 17:55 | 44.27274 | 2.88714 | 36958 ft | 401 kts | 187° |
| 2026-05-04 17:56 | 44.21694 | 2.88312 | 36949 ft | 402 kts | 187° |
| 2026-05-04 17:56 | 44.16174 | 2.87919 | 36671 ft | 391 kts | 187° |
| 2026-05-04 17:57 | 44.13489 | 2.87729 | 36448 ft | 383 kts | 187° |
| 2026-05-04 17:57 | 44.10846 | 2.87541 | 36100 ft | 378 kts | 187° |
| 2026-05-04 17:57 | 44.08233 | 2.87353 | 35735 ft | 374 kts | 187° |
| 2026-05-04 17:57 | 44.05640 | 2.87173 | 35391 ft | 371 kts | 187° |
| 2026-05-04 17:58 | 44.03076 | 2.86989 | 35018 ft | 367 kts | 187° |
| 2026-05-04 17:58 | 44.00536 | 2.86804 | 34670 ft | 364 kts | 186° |
| 2026-05-04 17:58 | 43.98015 | 2.86621 | 34306 ft | 361 kts | 186° |
| 2026-05-04 17:58 | 43.95544 | 2.86443 | 33978 ft | 359 kts | 186° |
| 2026-05-04 17:59 | 43.93062 | 2.86265 | 33571 ft | 356 kts | 186° |
| 2026-05-04 17:59 | 43.90602 | 2.86090 | 33224 ft | 352 kts | 186° |
| 2026-05-04 17:59 | 43.85749 | 2.85744 | 32525 ft | 346 kts | 185° |
| 2026-05-04 18:00 | 43.83351 | 2.85573 | 32188 ft | 343 kts | 185° |
| 2026-05-04 18:00 | 43.80979 | 2.85405 | 31844 ft | 340 kts | 185° |
| 2026-05-04 18:00 | 43.78627 | 2.85238 | 31500 ft | 337 kts | 185° |
| 2026-05-04 18:00 | 43.76288 | 2.85161 | 31225 ft | 334 kts | 182° |
| 2026-05-04 18:01 | 43.73969 | 2.85182 | 30888 ft | 332 kts | 181° |
| 2026-05-04 18:01 | 43.71666 | 2.85231 | 30574 ft | 330 kts | 181° |
| 2026-05-04 18:01 | 43.69351 | 2.85283 | 30263 ft | 335 kts | 180° |
| 2026-05-04 18:02 | 43.64658 | 2.85379 | 29512 ft | 335 kts | 180° |
| 2026-05-04 18:02 | 43.62341 | 2.85421 | 29144 ft | 332 kts | 180° |
| 2026-05-04 18:02 | 43.60034 | 2.85460 | 28803 ft | 329 kts | 181° |
| 2026-05-04 18:02 | 43.57755 | 2.85497 | 28417 ft | 327 kts | 180° |
| 2026-05-04 18:03 | 43.55526 | 2.85531 | 28128 ft | 323 kts | 181° |
| 2026-05-04 18:03 | 43.53249 | 2.85561 | 27753 ft | 323 kts | 181° |
| 2026-05-04 18:03 | 43.51041 | 2.85593 | 27422 ft | 321 kts | 181° |
| 2026-05-04 18:03 | 43.48800 | 2.85627 | 27095 ft | 323 kts | 181° |
| 2026-05-04 18:04 | 43.46546 | 2.85661 | 26753 ft | 324 kts | 181° |
| 2026-05-04 18:04 | 43.44293 | 2.85695 | 26408 ft | 323 kts | 181° |
| 2026-05-04 18:04 | 43.39831 | 2.85763 | 25737 ft | 319 kts | 181° |
| 2026-05-04 18:05 | 43.37620 | 2.85795 | 25400 ft | 317 kts | 181° |
| 2026-05-04 18:05 | 43.35419 | 2.85827 | 25071 ft | 316 kts | 181° |
| 2026-05-04 18:05 | 43.33221 | 2.85859 | 24743 ft | 314 kts | 181° |
| 2026-05-04 18:05 | 43.31041 | 2.85891 | 24414 ft | 313 kts | 181° |
| 2026-05-04 18:06 | 43.26707 | 2.85954 | 23763 ft | 311 kts | 181° |
| 2026-05-04 18:06 | 43.24546 | 2.85985 | 23409 ft | 310 kts | 181° |
| 2026-05-04 18:06 | 43.22392 | 2.86016 | 23041 ft | 309 kts | 181° |
| 2026-05-04 18:07 | 43.20251 | 2.86048 | 22704 ft | 307 kts | 181° |
| 2026-05-04 18:07 | 43.18115 | 2.86079 | 22346 ft | 306 kts | 181° |
| 2026-05-04 18:07 | 43.15993 | 2.86110 | 22039 ft | 304 kts | 181° |
| 2026-05-04 18:07 | 43.13876 | 2.86140 | 21707 ft | 304 kts | 181° |
| 2026-05-04 18:08 | 43.11807 | 2.86170 | 21406 ft | 304 kts | 181° |
| 2026-05-04 18:08 | 43.09663 | 2.86201 | 21079 ft | 304 kts | 181° |
| 2026-05-04 18:08 | 43.07579 | 2.86231 | 20756 ft | 303 kts | 181° |
| 2026-05-04 18:08 | 43.05477 | 2.86261 | 20446 ft | 301 kts | 181° |
| 2026-05-04 18:09 | 43.01303 | 2.86322 | 19827 ft | 299 kts | 181° |
| 2026-05-04 18:09 | 42.97156 | 2.86382 | 19197 ft | 297 kts | 182° |
| 2026-05-04 18:10 | 42.95092 | 2.86411 | 18895 ft | 296 kts | 182° |
| 2026-05-04 18:10 | 42.93034 | 2.86441 | 18582 ft | 295 kts | 182° |
| 2026-05-04 18:10 | 42.90988 | 2.86470 | 18290 ft | 294 kts | 182° |
| 2026-05-04 18:10 | 42.88945 | 2.86500 | 17920 ft | 294 kts | 182° |
| 2026-05-04 18:11 | 42.86903 | 2.86529 | 17586 ft | 292 kts | 182° |
| 2026-05-04 18:11 | 42.84874 | 2.86558 | 17266 ft | 291 kts | 182° |
| 2026-05-04 18:11 | 42.82855 | 2.86586 | 16955 ft | 289 kts | 182° |
| 2026-05-04 18:11 | 42.80849 | 2.86615 | 16657 ft | 287 kts | 182° |
| 2026-05-04 18:12 | 42.78855 | 2.86645 | 16366 ft | 286 kts | 182° |
| 2026-05-04 18:12 | 42.76867 | 2.86673 | 16074 ft | 285 kts | 182° |
| 2026-05-04 18:12 | 42.74882 | 2.86778 | 15764 ft | 287 kts | 174° |
| 2026-05-04 18:12 | 42.72943 | 2.87483 | 15483 ft | 289 kts | 166° |
| 2026-05-04 18:13 | 42.71036 | 2.88327 | 15185 ft | 288 kts | 166° |
| 2026-05-04 18:13 | 42.69131 | 2.89175 | 14895 ft | 288 kts | 166° |
| 2026-05-04 18:13 | 42.65348 | 2.90838 | 14314 ft | 287 kts | 166° |
| 2026-05-04 18:14 | 42.63447 | 2.91664 | 14029 ft | 286 kts | 166° |
| 2026-05-04 18:14 | 42.61546 | 2.92486 | 13732 ft | 286 kts | 166° |
| 2026-05-04 18:14 | 42.60264 | 2.93038 | 13515 ft | 286 kts | 166° |
| 2026-05-04 18:15 | 42.56473 | 2.94668 | 12891 ft | 285 kts | 166° |
| 2026-05-04 18:15 | 42.52803 | 2.96245 | 12367 ft | 272 kts | 167° |
| 2026-05-04 18:15 | 42.50994 | 2.97019 | 11862 ft | 273 kts | 166° |
| 2026-05-04 18:16 | 42.49215 | 2.97776 | 11437 ft | 271 kts | 168° |
| 2026-05-04 18:16 | 42.47382 | 2.98005 | 10904 ft | 264 kts | 191° |
| 2026-05-04 18:16 | 42.45586 | 2.97467 | 10546 ft | 259 kts | 197° |
| 2026-05-04 18:17 | 42.42182 | 2.96095 | 9788 ft | 256 kts | 199° |
| 2026-05-04 18:17 | 42.40458 | 2.95401 | 9334 ft | 254 kts | 198° |
| 2026-05-04 18:17 | 42.37101 | 2.94084 | 8483 ft | 254 kts | 198° |
| 2026-05-04 18:18 | 42.35410 | 2.93428 | 8273 ft | 250 kts | 198° |
| 2026-05-04 18:18 | 42.33756 | 2.92789 | 7961 ft | 246 kts | 198° |
| 2026-05-04 18:18 | 42.32146 | 2.92167 | 7915 ft | 235 kts | 198° |
| 2026-05-04 18:18 | 42.30608 | 2.91573 | 7895 ft | 224 kts | 198° |
| 2026-05-04 18:19 | 42.27751 | 2.90471 | 7898 ft | 208 kts | 198° |
| 2026-05-04 18:19 | 42.26324 | 2.89919 | 7533 ft | 223 kts | 198° |
| 2026-05-04 18:19 | 42.24896 | 2.89336 | 7219 ft | 226 kts | 199° |
| 2026-05-04 18:20 | 42.23379 | 2.88713 | 6899 ft | 229 kts | 198° |
| 2026-05-04 18:20 | 42.21845 | 2.88110 | 6599 ft | 231 kts | 198° |
| 2026-05-04 18:20 | 42.20303 | 2.87517 | 6299 ft | 230 kts | 198° |
| 2026-05-04 18:20 | 42.18771 | 2.86934 | 5977 ft | 227 kts | 197° |
| 2026-05-04 18:21 | 42.17259 | 2.86361 | 5672 ft | 224 kts | 197° |
| 2026-05-04 18:21 | 42.15769 | 2.85797 | 5385 ft | 220 kts | 198° |
| 2026-05-04 18:21 | 42.14418 | 2.85285 | 5117 ft | 217 kts | 197° |
| 2026-05-04 18:21 | 42.12978 | 2.84737 | 4862 ft | 214 kts | 197° |
| 2026-05-04 18:22 | 42.11541 | 2.84192 | 4562 ft | 212 kts | 197° |
| 2026-05-04 18:22 | 42.10142 | 2.83662 | 4257 ft | 205 kts | 197° |
| 2026-05-04 18:22 | 42.08794 | 2.83151 | 3987 ft | 199 kts | 197° |
| 2026-05-04 18:22 | 42.07493 | 2.82657 | 3752 ft | 191 kts | 198° |
| 2026-05-04 18:23 | 42.06226 | 2.82177 | 3496 ft | 187 kts | 198° |
| 2026-05-04 18:23 | 42.04990 | 2.81706 | 3249 ft | 184 kts | 197° |
| 2026-05-04 18:23 | 42.03771 | 2.81244 | 3010 ft | 180 kts | 198° |
| 2026-05-04 18:23 | 42.02589 | 2.80796 | 2770 ft | 172 kts | 197° |
| 2026-05-04 18:24 | 42.01473 | 2.80372 | 2533 ft | 161 kts | 197° |
| 2026-05-04 18:24 | 42.00432 | 2.79978 | 2341 ft | 147 kts | 197° |
| 2026-05-04 18:24 | 41.99427 | 2.79595 | 2138 ft | 152 kts | 197° |
| 2026-05-04 18:24 | 41.98422 | 2.79214 | 1927 ft | 148 kts | 197° |
| 2026-05-04 18:25 | 41.97444 | 2.78842 | 1744 ft | 144 kts | 197° |
| 2026-05-04 18:25 | 41.96482 | 2.78477 | 1550 ft | 145 kts | 197° |
| 2026-05-04 18:25 | 41.95511 | 2.78108 | 1347 ft | 146 kts | 195° |
| 2026-05-04 18:25 | 41.94537 | 2.77739 | 1137 ft | 145 kts | 195° |
| 2026-05-04 18:26 | 41.93561 | 2.77370 | 982 ft | 149 kts | 196° |
| 2026-05-04 18:26 | 41.92562 | 2.76991 | 752 ft | 145 kts | 195° |
| 2026-05-04 18:26 | 41.91622 | 2.76634 | 573 ft | 141 kts | 196° |
| 2026-05-04 18:26 | 41.90695 | 2.76282 | 460 ft | 128 kts | 195° |
| 2026-05-04 18:27 | 41.90035 | 2.76034 | 420 ft | 72 kts | 195° |
| 2026-05-04 18:27 | 41.89684 | 2.75901 | 399 ft | 39 kts | 195° |
| 2026-05-04 18:27 | 41.89511 | 2.75915 | 390 ft | 21 kts | 138° |
| 2026-05-04 18:27 | 41.89505 | 2.76039 | 394 ft | 15 kts | 54° |
| 2026-05-04 18:28 | 41.89594 | 2.76093 | 400 ft | 14 kts | 17° |
| 2026-05-04 18:28 | 41.89686 | 2.76131 | 405 ft | 13 kts | 17° |
| 2026-05-04 18:28 | 41.89773 | 2.76166 | 408 ft | 13 kts | 16° |
| 2026-05-04 18:28 | 41.89867 | 2.76199 | 415 ft | 18 kts | 13° |
| 2026-05-04 18:29 | 41.89997 | 2.76243 | 418 ft | 20 kts | 15° |
| 2026-05-04 18:29 | 41.90036 | 2.76363 | 424 ft | 14 kts | 106° |
| 2026-05-04 18:29 | 41.90011 | 2.76480 | 423 ft | 10 kts | 105° |
| 2026-05-04 18:29 | 41.90004 | 2.76512 | 415 ft | 2 kts | 107° |
| 2026-05-04 18:30 | 41.90003 | 2.76517 | 415 ft | 0 kts | 107° |